Preview of NWS' New Version of Forecast
This preview is not operational and should not be used for support decisions.

Terminal Aerodrome Forecast (TAF)

Issued by National Weather Service (NWS)

                            
000
FTUS42 KMFL 191505 AAA
TAFMIA
TAF AMD
KMIA 191505Z 1915/2018 15012KT P6SM FEW040 SCT200
     FM200600 19006KT P6SM SCT035 SCT250
     FM201000 22008KT P6SM VCSH SCT035 BKN150
     FM201400 26011KT P6SM VCSH SCT035 OVC080=